createdAt,value
2023-04-10T00:00:21.284Z,1.92
2023-04-10T00:02:48.430Z,1.78
2023-04-10T00:05:15.298Z,1.77
2023-04-10T00:07:42.336Z,1.67
2023-04-10T00:10:09.231Z,1.70
2023-04-10T00:12:37.743Z,1.74
2023-04-10T00:15:04.559Z,1.87
2023-04-10T00:17:31.116Z,1.53
2023-04-10T00:19:59.280Z,1.58
2023-04-10T00:22:26.513Z,1.60
2023-04-10T00:24:53.554Z,1.69
2023-04-10T00:27:20.171Z,1.62
2023-04-10T00:29:46.679Z,1.42
2023-04-10T00:32:13.411Z,1.39
2023-04-10T00:34:39.991Z,1.30
2023-04-10T00:37:06.409Z,1.28
2023-04-10T00:39:32.910Z,1.25
2023-04-10T00:41:59.626Z,1.23
2023-04-10T00:44:26.428Z,1.36
2023-04-10T00:46:53.008Z,1.29
2023-04-10T00:49:19.616Z,1.34
2023-04-10T00:51:46.978Z,1.36
2023-04-10T00:54:13.548Z,1.35
2023-04-10T00:56:40.393Z,1.36
2023-04-10T00:59:07.349Z,1.33
2023-04-10T01:01:34.065Z,1.24
2023-04-10T01:04:00.993Z,1.33
2023-04-10T01:06:54.272Z,1.29
2023-04-10T01:09:44.333Z,0.81
2023-04-10T01:12:40.625Z,0.76
2023-04-10T01:15:10.687Z,0.82
2023-04-10T01:17:52.399Z,0.75
2023-04-10T01:20:28.337Z,0.88
2023-04-10T01:23:32.697Z,0.75
2023-04-10T01:26:03.280Z,0.81
2023-04-10T01:28:46.134Z,0.84
2023-04-10T01:31:18.889Z,0.72
2023-04-10T01:33:52.691Z,0.73
2023-04-10T01:36:28.004Z,0.71
2023-04-10T01:38:57.125Z,0.60
2023-04-10T01:41:25.292Z,0.66
2023-04-10T01:43:54.149Z,0.70
2023-04-10T01:46:22.470Z,0.64
2023-04-10T01:48:51.152Z,0.62
2023-04-10T01:51:18.600Z,0.47
2023-04-10T01:53:47.860Z,0.49
2023-04-10T01:56:16.992Z,0.50
2023-04-10T01:58:45.929Z,0.47
2023-04-10T02:01:28.417Z,0.74
2023-04-10T02:03:57.119Z,0.73
2023-04-10T02:06:31.302Z,0.61
2023-04-10T02:09:15.336Z,0.67
2023-04-10T02:11:49.318Z,0.75
2023-04-10T02:14:18.195Z,0.85
2023-04-10T02:16:45.039Z,0.84
2023-04-10T02:19:12.976Z,0.82
2023-04-10T02:21:42.046Z,0.88
2023-04-10T02:24:08.566Z,0.95
2023-04-10T02:27:04.465Z,1.02
2023-04-10T02:29:30.996Z,1.04
2023-04-10T02:31:57.411Z,1.00
2023-04-10T02:34:23.880Z,0.76
2023-04-10T02:36:50.309Z,0.62
2023-04-10T02:39:17.153Z,0.63
2023-04-10T02:41:49.845Z,0.50
2023-04-10T02:44:16.966Z,0.47
2023-04-10T02:46:44.118Z,0.51
2023-04-10T02:49:11.964Z,0.37
2023-04-10T02:51:38.371Z,0.20
2023-04-10T02:54:05.165Z,0.18
2023-04-10T02:56:36.429Z,0.15
2023-04-10T02:59:03.547Z,0.18
2023-04-10T03:01:31.089Z,0.11
2023-04-10T03:03:58.989Z,-0.02
2023-04-10T03:06:32.523Z,-0.01
2023-04-10T03:08:59.164Z,0.02
2023-04-10T03:11:27.100Z,-0.06
2023-04-10T03:13:53.992Z,-0.23
2023-04-10T03:16:20.812Z,-0.13
2023-04-10T03:18:47.805Z,-0.12
2023-04-10T03:21:14.273Z,-0.11
2023-04-10T03:23:42.046Z,-0.02
2023-04-10T03:26:08.645Z,-0.20
2023-04-10T03:28:37.888Z,-0.46
2023-04-10T03:31:05.737Z,-0.40
2023-04-10T03:33:35.469Z,-0.22
2023-04-10T03:36:04.156Z,0.01
2023-04-10T03:38:32.780Z,-0.22
2023-04-10T03:40:59.272Z,-0.51
2023-04-10T03:43:29.895Z,-0.53
2023-04-10T03:45:56.496Z,-0.38
2023-04-10T03:48:23.809Z,-0.15
2023-04-10T03:50:51.070Z,-0.14
2023-04-10T03:53:17.679Z,-0.13
2023-04-10T03:55:45.181Z,-0.11
2023-04-10T03:58:13.034Z,-0.06
2023-04-10T04:00:40.067Z,0.07
2023-04-10T04:03:13.338Z,-0.04
2023-04-10T04:06:03.498Z,-0.29
2023-04-10T04:08:50.284Z,-0.33
2023-04-10T04:11:39.040Z,-0.43
2023-04-10T04:14:28.327Z,-0.37
2023-04-10T04:17:16.511Z,-0.08
2023-04-10T04:19:55.265Z,0.08
2023-04-10T04:22:44.671Z,-0.05
2023-04-10T04:25:35.300Z,-0.15
2023-04-10T04:28:39.602Z,-0.17
2023-04-10T04:31:25.207Z,-0.22
2023-04-10T04:34:10.427Z,-0.21
2023-04-10T04:36:49.064Z,-0.06
2023-04-10T04:39:34.670Z,0.03
2023-04-10T04:42:21.423Z,-0.04
2023-04-10T04:45:07.230Z,0.02
2023-04-10T04:47:44.437Z,0.09
2023-04-10T04:50:21.789Z,0.27
2023-04-10T04:53:04.582Z,0.36
2023-04-10T04:55:52.201Z,0.48
2023-04-10T04:58:38.814Z,0.36
2023-04-10T05:01:11.548Z,0.27
2023-04-10T05:04:13.391Z,0.49
2023-04-10T05:06:55.993Z,0.52
2023-04-10T05:09:42.763Z,0.56
2023-04-10T05:12:35.374Z,0.64
2023-04-10T05:15:22.383Z,0.58
2023-04-10T05:18:07.715Z,0.60
2023-04-10T05:20:54.408Z,0.80
2023-04-10T05:23:40.903Z,0.88
2023-04-10T05:26:26.036Z,0.97
2023-04-10T05:29:08.599Z,1.20
2023-04-10T05:32:16.548Z,1.18
2023-04-10T05:34:57.387Z,0.98
2023-04-10T05:37:50.291Z,1.13
2023-04-10T05:40:25.306Z,1.17
2023-04-10T05:43:12.386Z,1.10
2023-04-10T05:45:59.130Z,1.10
2023-04-10T05:48:41.060Z,1.23
2023-04-10T05:51:22.029Z,1.37
2023-04-10T05:54:06.860Z,1.51
2023-04-10T05:56:46.473Z,1.66
2023-04-10T05:59:45.032Z,1.69
2023-04-10T06:02:27.536Z,1.71
2023-04-10T06:04:54.699Z,1.82
2023-04-10T06:07:22.092Z,1.84
2023-04-10T06:09:48.575Z,1.85
2023-04-10T06:12:15.384Z,1.93
2023-04-10T06:14:41.794Z,2.08
2023-04-10T06:17:08.540Z,2.18
2023-04-10T06:19:35.667Z,2.26
2023-04-10T06:22:02.127Z,2.22
2023-04-10T06:24:28.775Z,2.22
2023-04-10T06:26:56.979Z,2.37
2023-04-10T06:29:24.065Z,2.49
2023-04-10T06:31:50.647Z,2.64
2023-04-10T06:34:17.229Z,2.89
2023-04-10T06:36:53.558Z,3.04
2023-04-10T06:39:20.726Z,3.29
2023-04-10T06:41:47.842Z,3.45
2023-04-10T06:44:27.746Z,3.73
2023-04-10T06:46:54.187Z,3.83
2023-04-10T06:49:20.610Z,3.94
2023-04-10T06:51:48.264Z,4.09
2023-04-10T06:54:14.721Z,4.28
2023-04-10T06:56:41.354Z,4.60
2023-04-10T06:59:07.906Z,4.94
2023-04-10T07:01:34.475Z,5.25
2023-04-10T07:04:01.110Z,5.59
2023-04-10T07:06:27.879Z,5.73
2023-04-10T07:08:54.563Z,5.92
2023-04-10T07:11:21.523Z,6.13
2023-04-10T07:13:48.031Z,6.25
2023-04-10T07:16:14.496Z,6.39
2023-04-10T07:18:41.244Z,6.45
2023-04-10T07:21:12.412Z,6.47
2023-04-10T07:23:38.923Z,6.55
2023-04-10T07:26:05.686Z,6.63
2023-04-10T07:28:33.272Z,6.77
2023-04-10T07:30:59.703Z,6.85
2023-04-10T07:33:27.068Z,6.96
2023-04-10T07:35:53.661Z,7.08
2023-04-10T07:38:20.989Z,7.16
2023-04-10T07:40:47.650Z,7.30
2023-04-10T07:43:14.119Z,7.37
2023-04-10T07:45:40.952Z,7.49
2023-04-10T07:48:07.826Z,7.66
2023-04-10T07:50:34.334Z,7.77
2023-04-10T07:53:03.528Z,7.85
2023-04-10T07:55:30.327Z,7.94
2023-04-10T07:57:56.772Z,8.06
2023-04-10T08:00:23.339Z,8.19
2023-04-10T08:02:50.129Z,8.23
2023-04-10T08:05:16.795Z,8.28
2023-04-10T08:07:43.279Z,8.39
2023-04-10T08:10:10.115Z,8.46
2023-04-10T08:12:36.606Z,8.51
2023-04-10T08:15:03.131Z,8.52
2023-04-10T08:17:29.620Z,8.67
2023-04-10T08:19:56.531Z,8.78
2023-04-10T08:22:23.021Z,8.87
2023-04-10T08:24:49.637Z,8.95
2023-04-10T08:27:16.379Z,9.09
2023-04-10T08:29:43.282Z,9.13
2023-04-10T08:32:09.819Z,9.26
2023-04-10T08:34:36.274Z,9.36
2023-04-10T08:37:06.783Z,9.39
2023-04-10T08:39:35.910Z,9.55
2023-04-10T08:42:03.488Z,9.64
2023-04-10T08:44:30.203Z,9.67
2023-04-10T08:46:59.550Z,9.74
2023-04-10T08:49:45.870Z,9.83
2023-04-10T08:52:17.968Z,9.89
2023-04-10T08:54:48.760Z,10.11
2023-04-10T08:57:20.622Z,10.15
2023-04-10T08:59:47.647Z,10.31
2023-04-10T09:02:14.367Z,10.47
2023-04-10T09:04:47.290Z,10.69
2023-04-10T09:07:13.975Z,10.80
2023-04-10T09:09:40.698Z,10.83
2023-04-10T09:12:07.214Z,11.00
2023-04-10T09:14:35.406Z,11.24
2023-04-10T09:17:22.028Z,11.37
2023-04-10T09:19:52.308Z,11.44
2023-04-10T09:22:28.653Z,11.45
2023-04-10T09:24:55.136Z,11.60
2023-04-10T09:27:59.303Z,11.41
2023-04-10T09:30:33.879Z,11.53
2023-04-10T09:33:02.009Z,11.66
2023-04-10T09:35:39.105Z,11.74
2023-04-10T09:38:19.529Z,11.78
2023-04-10T09:40:46.973Z,12.05
2023-04-10T09:43:25.386Z,12.48
2023-04-10T09:45:54.526Z,12.58
2023-04-10T09:48:22.773Z,12.82
2023-04-10T09:50:49.867Z,12.97
2023-04-10T09:53:19.523Z,13.14
2023-04-10T09:55:47.582Z,13.18
2023-04-10T09:58:15.637Z,12.88
2023-04-10T10:00:49.155Z,12.87
2023-04-10T10:03:18.170Z,13.10
2023-04-10T10:05:48.298Z,13.26
2023-04-10T10:08:15.883Z,13.39
2023-04-10T10:10:51.420Z,13.19
2023-04-10T10:13:27.666Z,13.34
2023-04-10T10:16:13.148Z,13.50
2023-04-10T10:18:47.348Z,13.66
2023-04-10T10:21:15.723Z,13.85
2023-04-10T10:23:44.095Z,13.98
2023-04-10T10:26:10.698Z,14.23
2023-04-10T10:28:38.215Z,14.34
2023-04-10T10:31:05.604Z,14.52
2023-04-10T10:33:35.631Z,14.41
2023-04-10T10:36:03.319Z,14.07
2023-04-10T10:38:31.447Z,14.32
2023-04-10T10:41:09.154Z,14.22
2023-04-10T10:43:37.864Z,14.18
2023-04-10T10:46:11.451Z,14.36
2023-04-10T10:48:37.968Z,14.49
2023-04-10T10:51:04.598Z,14.33
2023-04-10T10:53:41.825Z,14.41
2023-04-10T10:56:20.799Z,14.57
2023-04-10T10:58:48.577Z,14.77
2023-04-10T11:01:15.896Z,14.90
2023-04-10T11:03:46.370Z,14.81
2023-04-10T11:06:17.004Z,15.01
2023-04-10T11:08:52.930Z,15.12
2023-04-10T11:11:25.262Z,15.12
2023-04-10T11:13:57.801Z,15.08
2023-04-10T11:16:43.798Z,15.08
2023-04-10T11:19:16.618Z,15.12
2023-04-10T11:22:07.510Z,15.29
2023-04-10T11:24:56.261Z,15.41
2023-04-10T11:27:46.263Z,15.30
2023-04-10T11:30:41.040Z,15.42
2023-04-10T11:33:07.644Z,15.62
2023-04-10T11:35:34.328Z,15.66
2023-04-10T11:38:10.653Z,15.76
2023-04-10T11:40:53.313Z,15.89
2023-04-10T11:43:19.715Z,16.03
2023-04-10T11:45:46.801Z,16.07
2023-04-10T11:48:16.002Z,16.20
2023-04-10T11:50:43.114Z,16.44
2023-04-10T11:53:20.085Z,16.59
2023-04-10T11:55:47.044Z,16.82
2023-04-10T11:58:27.132Z,16.86
2023-04-10T12:01:04.390Z,16.93
2023-04-10T12:03:35.106Z,16.25
2023-04-10T12:06:02.447Z,16.45
2023-04-10T12:08:37.478Z,16.86
2023-04-10T12:11:04.129Z,17.10
2023-04-10T12:13:31.865Z,17.10
2023-04-10T12:16:01.431Z,17.04
2023-04-10T12:18:29.772Z,17.29
2023-04-10T12:20:58.891Z,17.07
2023-04-10T12:23:26.829Z,17.34
2023-04-10T12:26:06.406Z,17.59
2023-04-10T12:28:32.914Z,17.69
2023-04-10T12:30:59.660Z,17.24
2023-04-10T12:33:26.285Z,17.42
2023-04-10T12:35:54.211Z,17.35
2023-04-10T12:38:37.128Z,17.76
2023-04-10T12:41:04.329Z,17.49
2023-04-10T12:43:33.565Z,17.10
2023-04-10T12:46:00.257Z,17.37
2023-04-10T12:48:26.799Z,17.59
2023-04-10T12:50:53.297Z,17.91
2023-04-10T12:53:19.823Z,18.14
2023-04-10T12:56:00.595Z,17.66
2023-04-10T12:58:28.250Z,17.51
2023-04-10T13:00:56.448Z,17.57
2023-04-10T13:03:23.713Z,17.70
2023-04-10T13:05:51.892Z,17.61
2023-04-10T13:08:18.539Z,18.01
2023-04-10T13:10:45.048Z,18.26
2023-04-10T13:13:14.063Z,18.74
2023-04-10T13:15:40.942Z,17.65
2023-04-10T13:18:07.969Z,17.87
2023-04-10T13:20:36.056Z,18.12
2023-04-10T13:23:03.779Z,18.77
2023-04-10T13:25:36.276Z,18.89
2023-04-10T13:28:03.460Z,19.41
2023-04-10T13:30:29.971Z,19.80
2023-04-10T13:32:56.612Z,19.87
2023-04-10T13:35:23.096Z,19.93
2023-04-10T13:37:53.059Z,19.15
2023-04-10T13:40:21.227Z,19.41
2023-04-10T13:42:48.549Z,18.23
2023-04-10T13:45:15.702Z,18.06
2023-04-10T13:47:42.802Z,17.40
2023-04-10T13:50:09.860Z,17.18
2023-04-10T13:52:36.273Z,17.21
2023-04-10T13:55:02.715Z,17.21
2023-04-10T13:57:29.166Z,17.61
2023-04-10T13:59:55.679Z,17.27
2023-04-10T14:02:22.265Z,17.77
2023-04-10T14:04:48.840Z,17.99
2023-04-10T14:07:15.226Z,17.70
2023-04-10T14:09:41.738Z,17.76
2023-04-10T14:12:08.316Z,17.80
2023-04-10T14:14:35.022Z,17.91
2023-04-10T14:17:01.569Z,17.62
2023-04-10T14:19:28.111Z,17.99
2023-04-10T14:21:54.596Z,18.17
2023-04-10T14:24:21.722Z,18.23
2023-04-10T14:26:48.168Z,18.31
2023-04-10T14:29:16.204Z,18.60
2023-04-10T14:31:56.779Z,18.55
2023-04-10T14:34:25.476Z,18.61
2023-04-10T14:36:55.765Z,18.35
2023-04-10T14:39:24.271Z,18.92
2023-04-10T14:41:51.074Z,19.41
2023-04-10T14:44:17.990Z,18.61
2023-04-10T14:46:45.573Z,18.18
2023-04-10T14:49:13.565Z,18.29
2023-04-10T14:51:43.192Z,18.81
2023-04-10T14:54:09.729Z,19.15
2023-04-10T14:56:36.470Z,19.24
2023-04-10T14:59:02.992Z,19.78
2023-04-10T15:01:29.495Z,19.53
2023-04-10T15:03:56.218Z,19.22
2023-04-10T15:06:23.037Z,19.29
2023-04-10T15:08:49.477Z,18.67
2023-04-10T15:11:15.960Z,19.21
2023-04-10T15:13:42.375Z,18.51
2023-04-10T15:16:08.827Z,18.55
2023-04-10T15:18:35.260Z,18.49
2023-04-10T15:21:01.827Z,18.44
2023-04-10T15:23:28.336Z,17.93
2023-04-10T15:25:55.044Z,18.50
2023-04-10T15:28:21.567Z,18.12
2023-04-10T15:30:49.914Z,18.35
2023-04-10T15:33:17.114Z,17.93
2023-04-10T15:35:48.253Z,17.39
2023-04-10T15:38:14.742Z,17.27
2023-04-10T15:40:41.206Z,17.55
2023-04-10T15:43:07.731Z,17.33
2023-04-10T15:45:35.838Z,17.25
2023-04-10T15:48:04.336Z,17.36
2023-04-10T15:50:31.467Z,17.39
2023-04-10T15:52:57.852Z,17.44
2023-04-10T15:55:24.384Z,17.22
2023-04-10T15:57:50.865Z,17.24
2023-04-10T16:00:17.757Z,17.23
2023-04-10T16:02:44.504Z,16.86
2023-04-10T16:05:11.332Z,16.76
2023-04-10T16:07:38.229Z,16.93
2023-04-10T16:10:11.376Z,17.05
2023-04-10T16:12:38.628Z,16.95
2023-04-10T16:15:08.054Z,16.83
2023-04-10T16:17:34.797Z,16.81
2023-04-10T16:20:05.477Z,16.93
2023-04-10T16:22:31.927Z,16.87
2023-04-10T16:24:59.474Z,16.69
2023-04-10T16:27:26.063Z,16.76
2023-04-10T16:29:52.546Z,16.98
2023-04-10T16:32:20.504Z,17.01
2023-04-10T16:34:47.382Z,17.07
2023-04-10T16:37:13.804Z,17.11
2023-04-10T16:39:40.318Z,17.10
2023-04-10T16:42:06.803Z,16.84
2023-04-10T16:44:33.307Z,16.93
2023-04-10T16:46:59.852Z,16.96
2023-04-10T16:49:26.672Z,16.89
2023-04-10T16:51:53.155Z,16.97
2023-04-10T16:54:19.603Z,16.83
2023-04-10T16:56:46.197Z,16.70
2023-04-10T16:59:12.637Z,16.62
2023-04-10T17:01:41.734Z,16.31
2023-04-10T17:04:09.323Z,16.28
2023-04-10T17:06:36.196Z,16.31
2023-04-10T17:09:02.708Z,16.10
2023-04-10T17:11:29.299Z,16.01
2023-04-10T17:13:55.754Z,15.88
2023-04-10T17:16:22.216Z,15.80
2023-04-10T17:18:48.751Z,15.70
2023-04-10T17:21:15.274Z,15.60
2023-04-10T17:23:41.985Z,15.50
2023-04-10T17:26:13.750Z,15.17
2023-04-10T17:28:44.325Z,15.13
2023-04-10T17:31:10.956Z,15.10
2023-04-10T17:33:37.394Z,15.14
2023-04-10T17:36:04.111Z,14.97
2023-04-10T17:38:30.676Z,14.85
2023-04-10T17:40:57.133Z,14.77
2023-04-10T17:43:23.543Z,14.75
2023-04-10T17:45:50.213Z,14.68
2023-04-10T17:48:18.393Z,14.60
2023-04-10T17:50:44.962Z,14.31
2023-04-10T17:53:11.402Z,14.05
2023-04-10T17:55:39.442Z,14.05
2023-04-10T17:58:06.288Z,14.08
2023-04-10T18:00:35.777Z,13.90
2023-04-10T18:03:02.655Z,13.93
2023-04-10T18:05:30.155Z,13.88
2023-04-10T18:07:58.834Z,13.92
2023-04-10T18:10:25.555Z,13.97
2023-04-10T18:12:52.848Z,13.97
2023-04-10T18:15:19.387Z,13.96
2023-04-10T18:17:45.908Z,13.92
2023-04-10T18:20:12.728Z,13.91
2023-04-10T18:22:39.196Z,13.95
2023-04-10T18:25:06.462Z,14.08
2023-04-10T18:27:34.777Z,13.58
2023-04-10T18:30:01.572Z,13.55
2023-04-10T18:32:28.216Z,13.29
2023-04-10T18:34:54.746Z,13.04
2023-04-10T18:37:21.209Z,13.01
2023-04-10T18:39:47.643Z,13.14
2023-04-10T18:42:14.175Z,13.18
2023-04-10T18:44:40.617Z,12.99
2023-04-10T18:47:07.167Z,13.19
2023-04-10T18:49:33.761Z,13.40
2023-04-10T18:52:00.590Z,13.74
2023-04-10T18:54:27.554Z,13.93
2023-04-10T18:56:54.204Z,13.89
2023-04-10T18:59:20.615Z,14.02
2023-04-10T19:01:47.145Z,14.03
2023-04-10T19:04:13.869Z,14.03
2023-04-10T19:06:41.074Z,13.96
2023-04-10T19:09:08.702Z,13.88
2023-04-10T19:11:35.176Z,13.75
2023-04-10T19:14:01.729Z,13.81
2023-04-10T19:16:28.457Z,13.81
2023-04-10T19:18:55.516Z,13.81
2023-04-10T19:21:22.182Z,13.75
2023-04-10T19:23:49.286Z,13.60
2023-04-10T19:26:16.142Z,13.62
2023-04-10T19:28:42.620Z,13.64
2023-04-10T19:31:09.190Z,13.66
2023-04-10T19:33:35.722Z,13.59
2023-04-10T19:36:02.192Z,13.52
2023-04-10T19:38:29.420Z,13.51
2023-04-10T19:40:56.068Z,13.50
2023-04-10T19:43:22.556Z,13.40
2023-04-10T19:45:49.084Z,13.00
2023-04-10T19:48:16.574Z,12.59
2023-04-10T19:50:43.012Z,12.22
2023-04-10T19:53:12.801Z,12.16
2023-04-10T19:55:40.912Z,12.02
2023-04-10T19:58:10.545Z,11.86
2023-04-10T20:00:39.794Z,11.81
2023-04-10T20:03:06.539Z,11.70
2023-04-10T20:05:33.134Z,11.70
2023-04-10T20:07:59.578Z,11.65
2023-04-10T20:10:26.234Z,11.63
2023-04-10T20:12:52.710Z,11.70
2023-04-10T20:15:20.485Z,11.78
2023-04-10T20:17:46.960Z,11.86
2023-04-10T20:20:13.536Z,11.96
2023-04-10T20:22:40.076Z,12.00
2023-04-10T20:25:07.181Z,12.07
2023-04-10T20:27:33.605Z,12.23
2023-04-10T20:30:00.042Z,12.32
2023-04-10T20:32:26.453Z,12.42
2023-04-10T20:34:52.858Z,12.43
2023-04-10T20:37:21.841Z,12.63
2023-04-10T20:39:49.076Z,12.70
2023-04-10T20:42:16.916Z,12.72
2023-04-10T20:44:43.355Z,12.88
2023-04-10T20:47:09.863Z,13.03
2023-04-10T20:49:37.480Z,13.18
2023-04-10T20:52:04.638Z,13.18
2023-04-10T20:54:31.071Z,13.02
2023-04-10T20:56:59.943Z,13.17
2023-04-10T20:59:26.726Z,13.14
2023-04-10T21:01:53.287Z,13.08
2023-04-10T21:04:20.053Z,12.99
2023-04-10T21:06:46.524Z,12.87
2023-04-10T21:09:13.009Z,12.71
2023-04-10T21:11:39.429Z,12.83
2023-04-10T21:14:05.919Z,12.83
2023-04-10T21:16:34.661Z,12.98
2023-04-10T21:19:01.175Z,12.77
2023-04-10T21:21:27.662Z,12.66
2023-04-10T21:23:54.589Z,12.58
2023-04-10T21:26:21.038Z,12.68
2023-04-10T21:28:48.586Z,12.57
2023-04-10T21:31:15.763Z,12.59
2023-04-10T21:33:42.971Z,12.63
2023-04-10T21:36:09.700Z,12.80
2023-04-10T21:38:36.151Z,12.64
2023-04-10T21:41:02.973Z,12.56
2023-04-10T21:43:29.546Z,12.52
2023-04-10T21:45:56.094Z,12.50
2023-04-10T21:48:22.980Z,12.46
2023-04-10T21:50:50.361Z,12.46
2023-04-10T21:53:16.794Z,12.67
2023-04-10T21:55:43.354Z,12.61
2023-04-10T21:58:09.998Z,12.57
2023-04-10T22:00:36.481Z,12.67
2023-04-10T22:03:03.128Z,12.68
2023-04-10T22:05:29.733Z,12.64
2023-04-10T22:07:56.179Z,12.61
2023-04-10T22:10:22.698Z,12.73
2023-04-10T22:12:49.486Z,12.73
2023-04-10T22:15:16.513Z,12.67
2023-04-10T22:17:43.255Z,12.63
2023-04-10T22:20:10.630Z,12.60
2023-04-10T22:22:37.084Z,12.62
2023-04-10T22:25:03.648Z,12.66
2023-04-10T22:27:30.092Z,12.51
2023-04-10T22:30:03.408Z,12.52
2023-04-10T22:32:31.533Z,12.39
2023-04-10T22:35:01.208Z,12.39
2023-04-10T22:37:27.908Z,12.48
2023-04-10T22:39:56.157Z,12.46
2023-04-10T22:42:23.048Z,12.38
2023-04-10T22:44:49.483Z,12.42
2023-04-10T22:47:15.883Z,12.45
2023-04-10T22:49:42.292Z,12.44
2023-04-10T22:52:08.737Z,12.45
2023-04-10T22:54:35.209Z,12.44
2023-04-10T22:57:01.882Z,12.44
2023-04-10T22:59:28.262Z,12.42
2023-04-10T23:01:54.829Z,12.51
2023-04-10T23:04:21.427Z,12.52
2023-04-10T23:06:47.929Z,12.50
2023-04-10T23:09:14.379Z,12.53
2023-04-10T23:11:40.864Z,12.45
2023-04-10T23:14:07.618Z,12.44
2023-04-10T23:16:34.085Z,12.45
2023-04-10T23:19:00.569Z,12.48
2023-04-10T23:21:27.514Z,12.44
2023-04-10T23:23:54.023Z,12.49
2023-04-10T23:26:20.799Z,12.51
2023-04-10T23:28:47.817Z,12.49
2023-04-10T23:31:14.767Z,12.49
2023-04-10T23:33:41.468Z,12.56
2023-04-10T23:36:08.313Z,12.54
2023-04-10T23:38:34.786Z,12.55
2023-04-10T23:41:02.817Z,12.59
2023-04-10T23:43:29.300Z,12.62
2023-04-10T23:45:55.718Z,12.70
2023-04-10T23:48:22.199Z,12.73
2023-04-10T23:50:48.654Z,12.73
2023-04-10T23:53:15.500Z,12.72
2023-04-10T23:55:42.447Z,12.70
2023-04-10T23:58:09.140Z,12.60
